createdAt,value
2023-03-19T00:02:16.529Z,14.60
2023-03-19T00:04:44.821Z,16.38
2023-03-19T00:07:11.815Z,14.98
2023-03-19T00:09:38.800Z,12.85
2023-03-19T00:12:05.739Z,9.82
2023-03-19T00:14:32.513Z,7.80
2023-03-19T00:16:59.280Z,10.48
2023-03-19T00:19:26.943Z,10.98
2023-03-19T00:21:53.983Z,9.73
2023-03-19T00:24:20.893Z,9.40
2023-03-19T00:26:47.781Z,12.82
2023-03-19T00:29:14.743Z,10.55
2023-03-19T00:31:41.838Z,8.02
2023-03-19T00:34:09.897Z,12.27
2023-03-19T00:36:37.208Z,7.82
2023-03-19T00:39:04.410Z,10.43
2023-03-19T00:41:31.180Z,7.93
2023-03-19T00:43:58.420Z,10.65
2023-03-19T00:46:25.860Z,9.75
2023-03-19T00:48:55.584Z,9.82
2023-03-19T00:51:23.756Z,9.10
2023-03-19T00:53:51.154Z,9.60
2023-03-19T00:56:18.471Z,10.93
2023-03-19T00:58:45.847Z,9.00
2023-03-19T01:01:14.461Z,8.73
2023-03-19T01:03:41.468Z,11.10
2023-03-19T01:06:08.288Z,9.73
2023-03-19T01:08:35.488Z,13.07
2023-03-19T01:11:10.058Z,9.13
2023-03-19T01:13:37.003Z,9.57
2023-03-19T01:16:04.092Z,12.02
2023-03-19T01:18:31.518Z,9.65
2023-03-19T01:20:58.906Z,8.20
2023-03-19T01:23:25.758Z,11.43
2023-03-19T01:25:52.432Z,9.70
2023-03-19T01:28:20.600Z,9.85
2023-03-19T01:30:47.382Z,8.30
2023-03-19T01:33:14.430Z,10.70
2023-03-19T01:35:41.596Z,9.50
2023-03-19T01:38:08.346Z,9.13
2023-03-19T01:40:35.302Z,10.20
2023-03-19T01:43:22.601Z,9.52
2023-03-19T01:45:55.985Z,9.50
2023-03-19T01:48:45.057Z,9.35
2023-03-19T01:51:14.378Z,9.90
2023-03-19T01:53:42.283Z,9.77
2023-03-19T01:56:23.340Z,10.77
2023-03-19T01:58:51.708Z,13.88
2023-03-19T02:01:18.433Z,8.40
2023-03-19T02:03:45.810Z,9.57
2023-03-19T02:06:12.544Z,12.63
2023-03-19T02:08:39.559Z,9.73
2023-03-19T02:11:06.346Z,8.85
2023-03-19T02:13:34.614Z,9.35
2023-03-19T02:16:01.427Z,9.07
2023-03-19T02:18:28.309Z,13.18
2023-03-19T02:20:57.903Z,15.85
2023-03-19T02:23:50.498Z,12.20
2023-03-19T02:26:21.324Z,8.83
2023-03-19T02:28:49.001Z,9.00
2023-03-19T02:31:17.080Z,9.65
2023-03-19T02:33:44.377Z,10.45
2023-03-19T02:36:17.526Z,8.95
2023-03-19T02:38:44.735Z,9.18
2023-03-19T02:41:11.478Z,8.05
2023-03-19T02:43:41.421Z,9.43
2023-03-19T02:46:10.542Z,7.10
2023-03-19T02:48:37.675Z,3.97
2023-03-19T02:51:05.234Z,6.53
2023-03-19T02:53:31.919Z,5.00
2023-03-19T02:55:58.665Z,5.53
2023-03-19T02:58:25.405Z,4.15
2023-03-19T03:00:52.812Z,7.47
2023-03-19T03:03:19.522Z,4.80
2023-03-19T03:05:46.337Z,6.40
2023-03-19T03:08:13.030Z,5.13
2023-03-19T03:10:39.679Z,5.30
2023-03-19T03:13:07.213Z,10.30
2023-03-19T03:15:33.960Z,6.43
2023-03-19T03:18:00.958Z,10.35
2023-03-19T03:20:27.673Z,8.52
2023-03-19T03:22:54.332Z,7.65
2023-03-19T03:25:21.315Z,9.90
2023-03-19T03:27:48.300Z,7.25
2023-03-19T03:30:16.320Z,10.30
2023-03-19T03:32:43.449Z,7.43
2023-03-19T03:35:10.290Z,12.43
2023-03-19T03:37:38.067Z,10.52
2023-03-19T03:40:08.528Z,7.22
2023-03-19T03:42:37.491Z,8.00
2023-03-19T03:45:05.092Z,8.95
2023-03-19T03:47:32.506Z,9.52
2023-03-19T03:49:59.252Z,8.30
2023-03-19T03:52:26.079Z,9.80
2023-03-19T03:54:52.917Z,9.15
2023-03-19T03:57:19.644Z,7.63
2023-03-19T03:59:46.618Z,7.07
2023-03-19T04:02:13.360Z,7.00
2023-03-19T04:04:40.105Z,7.25
2023-03-19T04:07:06.888Z,7.65
2023-03-19T04:09:33.569Z,7.10
2023-03-19T04:12:00.504Z,8.52
2023-03-19T04:14:27.220Z,7.95
2023-03-19T04:16:54.154Z,5.82
2023-03-19T04:19:21.096Z,8.27
2023-03-19T04:21:47.769Z,8.48
2023-03-19T04:24:14.600Z,6.22
2023-03-19T04:26:41.786Z,9.80
2023-03-19T04:29:11.259Z,8.25
2023-03-19T04:31:38.365Z,10.85
2023-03-19T04:34:05.940Z,7.90
2023-03-19T04:36:33.336Z,7.95
2023-03-19T04:39:00.401Z,8.70
2023-03-19T04:41:27.265Z,10.27
2023-03-19T04:43:53.930Z,11.65
2023-03-19T04:46:20.813Z,8.65
2023-03-19T04:48:47.572Z,10.45
2023-03-19T04:51:15.052Z,11.15
2023-03-19T04:53:41.984Z,11.05
2023-03-19T04:56:08.951Z,9.07
2023-03-19T04:58:35.850Z,6.68
2023-03-19T05:01:02.629Z,8.30
2023-03-19T05:03:29.374Z,7.15
2023-03-19T05:05:56.043Z,8.38
2023-03-19T05:08:22.893Z,8.48
2023-03-19T05:10:49.622Z,8.20
2023-03-19T05:13:16.433Z,5.50
2023-03-19T05:15:44.006Z,8.18
2023-03-19T05:18:11.145Z,5.70
2023-03-19T05:20:38.595Z,6.07
2023-03-19T05:23:06.547Z,8.50
2023-03-19T05:25:35.453Z,6.78
2023-03-19T05:28:03.439Z,8.70
2023-03-19T05:30:30.574Z,7.28
2023-03-19T05:33:04.594Z,6.88
2023-03-19T05:35:33.853Z,7.20
2023-03-19T05:38:11.517Z,7.53
2023-03-19T05:40:39.793Z,8.30
2023-03-19T05:43:14.008Z,8.43
2023-03-19T05:45:48.854Z,7.40
2023-03-19T05:48:18.998Z,6.45
2023-03-19T05:50:49.642Z,6.35
2023-03-19T05:53:23.191Z,6.97
2023-03-19T05:55:53.101Z,6.00
2023-03-19T05:58:31.213Z,6.05
2023-03-19T06:01:03.294Z,6.25
2023-03-19T06:03:33.107Z,7.15
2023-03-19T06:06:13.047Z,4.22
2023-03-19T06:08:43.290Z,4.32
2023-03-19T06:11:16.610Z,6.35
2023-03-19T06:13:44.053Z,5.50
2023-03-19T06:16:11.757Z,5.75
2023-03-19T06:18:42.029Z,4.20
2023-03-19T06:21:22.854Z,6.47
2023-03-19T06:23:51.750Z,4.45
2023-03-19T06:26:25.672Z,5.03
2023-03-19T06:28:56.287Z,3.58
2023-03-19T06:31:32.032Z,4.72
2023-03-19T06:34:02.200Z,6.35
2023-03-19T06:36:34.723Z,9.10
2023-03-19T06:39:12.663Z,6.88
2023-03-19T06:41:43.818Z,4.82
2023-03-19T06:44:33.411Z,4.65
2023-03-19T06:47:03.883Z,3.22
2023-03-19T06:49:39.707Z,4.88
2023-03-19T06:52:07.353Z,5.30
2023-03-19T06:54:41.075Z,4.07
2023-03-19T06:57:24.694Z,4.63
2023-03-19T07:00:01.365Z,4.28
2023-03-19T07:02:34.644Z,3.20
2023-03-19T07:05:03.775Z,4.65
2023-03-19T07:07:41.576Z,6.32
2023-03-19T07:10:11.965Z,5.13
2023-03-19T07:12:41.777Z,7.20
2023-03-19T07:15:12.211Z,5.95
2023-03-19T07:17:39.355Z,5.80
2023-03-19T07:20:08.391Z,4.65
2023-03-19T07:22:40.642Z,5.65
2023-03-19T07:25:10.562Z,2.72
2023-03-19T07:27:39.552Z,5.38
2023-03-19T07:30:13.351Z,2.63
2023-03-19T07:32:41.399Z,4.80
2023-03-19T07:35:12.838Z,4.20
2023-03-19T07:38:01.744Z,3.95
2023-03-19T07:40:33.041Z,4.18
2023-03-19T07:43:01.759Z,3.05
2023-03-19T07:45:36.802Z,4.80
2023-03-19T07:48:07.146Z,6.78
2023-03-19T07:50:37.573Z,4.80
2023-03-19T07:53:08.082Z,4.80
2023-03-19T07:55:38.433Z,9.38
2023-03-19T07:58:11.517Z,5.95
2023-03-19T08:03:11.840Z,3.00
2023-03-19T08:08:15.854Z,4.43
2023-03-19T08:10:45.082Z,6.50
2023-03-19T08:13:19.789Z,5.35
2023-03-19T08:16:09.601Z,3.42
2023-03-19T08:18:42.642Z,5.22
2023-03-19T08:23:45.926Z,2.75
2023-03-19T08:26:13.871Z,5.78
2023-03-19T08:28:41.504Z,3.25
2023-03-19T08:31:14.227Z,2.22
2023-03-19T08:33:46.060Z,4.75
2023-03-19T08:36:18.082Z,2.78
2023-03-19T08:38:46.919Z,5.53
2023-03-19T08:41:17.738Z,3.08
2023-03-19T08:43:45.466Z,2.25
2023-03-19T08:46:15.585Z,4.80
2023-03-19T08:48:47.303Z,4.30
2023-03-19T08:51:15.150Z,2.50
2023-03-19T08:53:46.349Z,4.80
2023-03-19T08:56:17.195Z,2.50
2023-03-19T08:58:45.013Z,2.85
2023-03-19T09:01:16.152Z,3.63
2023-03-19T09:03:45.901Z,2.78
2023-03-19T09:06:20.325Z,3.10
2023-03-19T09:08:51.002Z,2.92
2023-03-19T09:11:33.751Z,4.00
2023-03-19T09:14:13.772Z,2.67
2023-03-19T09:16:55.141Z,3.63
2023-03-19T09:19:27.615Z,6.60
2023-03-19T09:22:03.680Z,3.97
2023-03-19T09:24:35.552Z,2.88
2023-03-19T09:27:03.167Z,3.88
2023-03-19T09:29:34.770Z,3.30
2023-03-19T09:32:03.522Z,4.80
2023-03-19T09:34:31.546Z,4.25
2023-03-19T09:36:59.601Z,2.53
2023-03-19T09:39:29.210Z,3.55
2023-03-19T09:42:17.890Z,1.83
2023-03-19T09:44:56.755Z,4.78
2023-03-19T09:47:37.890Z,3.30
2023-03-19T09:50:19.760Z,5.72
2023-03-19T09:53:12.020Z,2.42
2023-03-19T09:55:52.498Z,3.90
2023-03-19T09:58:32.017Z,2.85
2023-03-19T10:01:06.588Z,1.52
2023-03-19T10:03:46.888Z,3.25
2023-03-19T10:06:31.900Z,1.88
2023-03-19T10:09:20.930Z,2.67
2023-03-19T10:12:10.787Z,2.85
2023-03-19T10:14:53.707Z,2.35
2023-03-19T10:17:34.610Z,3.25
2023-03-19T10:20:26.580Z,2.40
2023-03-19T10:23:28.721Z,2.00
2023-03-19T10:26:02.841Z,4.10
2023-03-19T10:28:33.568Z,2.13
2023-03-19T10:31:33.213Z,3.15
2023-03-19T10:34:43.633Z,2.15
2023-03-19T10:37:15.239Z,3.28
2023-03-19T10:39:53.112Z,2.20
2023-03-19T10:42:43.287Z,2.83
2023-03-19T10:45:38.659Z,3.63
2023-03-19T10:48:18.369Z,4.57
2023-03-19T10:51:14.884Z,3.95
2023-03-19T10:53:42.642Z,3.28
2023-03-19T10:56:24.565Z,4.65
2023-03-19T10:59:11.538Z,3.05
2023-03-19T11:01:44.751Z,4.30
2023-03-19T11:04:24.089Z,2.85
2023-03-19T11:06:56.886Z,3.63
2023-03-19T11:09:56.244Z,3.33
2023-03-19T11:12:28.298Z,3.72
2023-03-19T11:14:58.131Z,3.72
2023-03-19T11:17:53.885Z,5.05
2023-03-19T11:20:33.160Z,3.00
2023-03-19T11:23:17.624Z,2.47
2023-03-19T11:25:56.083Z,3.25
2023-03-19T11:28:34.457Z,2.47
2023-03-19T11:31:41.583Z,2.85
2023-03-19T11:34:25.568Z,3.47
2023-03-19T11:37:30.419Z,1.88
2023-03-19T11:40:24.724Z,4.32
2023-03-19T11:43:04.193Z,2.35
2023-03-19T11:45:58.264Z,3.88
2023-03-19T11:48:31.508Z,4.00
2023-03-19T11:51:13.263Z,2.15
2023-03-19T11:54:04.773Z,4.38
2023-03-19T11:56:49.141Z,2.83
2023-03-19T12:00:08.333Z,3.55
2023-03-19T12:02:48.747Z,3.55
2023-03-19T12:05:36.508Z,2.10
2023-03-19T12:08:51.912Z,4.22
2023-03-19T12:11:30.307Z,2.67
2023-03-19T12:14:09.335Z,3.05
2023-03-19T12:17:05.160Z,2.05
2023-03-19T12:20:26.492Z,3.22
2023-03-19T12:23:28.691Z,2.78
2023-03-19T12:26:14.437Z,2.15
2023-03-19T12:28:55.103Z,2.55
2023-03-19T12:31:52.772Z,2.65
2023-03-19T12:34:49.894Z,3.42
2023-03-19T12:37:23.260Z,2.03
2023-03-19T12:40:21.633Z,2.65
2023-03-19T12:42:53.448Z,2.90
2023-03-19T12:45:49.700Z,3.33
2023-03-19T12:48:27.596Z,1.83
2023-03-19T12:51:14.961Z,2.03
2023-03-19T12:54:00.407Z,3.50
2023-03-19T12:56:51.904Z,2.15
2023-03-19T12:59:26.215Z,1.98
2023-03-19T13:02:20.516Z,2.17
2023-03-19T13:04:54.333Z,2.53
2023-03-19T13:07:49.617Z,2.45
2023-03-19T13:10:23.920Z,3.38
2023-03-19T13:12:51.897Z,3.40
2023-03-19T13:15:31.779Z,3.08
2023-03-19T13:18:15.119Z,4.25
2023-03-19T13:21:08.743Z,2.55
2023-03-19T13:23:38.978Z,2.58
2023-03-19T13:26:08.826Z,4.82
2023-03-19T13:28:56.457Z,3.38
2023-03-19T13:31:36.894Z,3.00
2023-03-19T13:34:32.957Z,6.00
2023-03-19T13:37:07.684Z,4.00
2023-03-19T13:39:35.905Z,4.15
2023-03-19T13:42:43.040Z,2.63
2023-03-19T13:45:38.481Z,2.35
2023-03-19T13:48:27.825Z,4.82
2023-03-19T13:51:25.307Z,4.15
2023-03-19T13:53:55.856Z,3.78
2023-03-19T13:56:30.448Z,2.42
2023-03-19T13:59:37.250Z,6.50
2023-03-19T14:02:27.747Z,6.88
2023-03-19T14:05:06.055Z,3.53
2023-03-19T14:07:47.130Z,4.68
2023-03-19T14:10:32.261Z,4.28
2023-03-19T14:13:11.946Z,3.63
2023-03-19T14:15:43.343Z,3.30
2023-03-19T14:18:17.440Z,3.13
2023-03-19T14:20:59.502Z,3.92
2023-03-19T14:23:40.594Z,4.40
2023-03-19T14:26:24.238Z,3.15
2023-03-19T14:29:05.040Z,3.83
2023-03-19T14:31:51.640Z,1.98
2023-03-19T14:34:47.946Z,3.78
2023-03-19T14:37:35.344Z,3.05
2023-03-19T14:40:10.077Z,2.55
2023-03-19T14:43:20.435Z,4.43
2023-03-19T14:46:00.365Z,3.05
2023-03-19T14:49:03.691Z,3.28
2023-03-19T14:51:46.292Z,3.00
2023-03-19T14:54:13.713Z,3.42
2023-03-19T14:56:43.898Z,3.08
2023-03-19T14:59:15.661Z,3.05
2023-03-19T15:01:48.810Z,2.58
2023-03-19T15:04:25.224Z,3.13
2023-03-19T15:06:55.732Z,6.28
2023-03-19T15:09:30.439Z,7.45
2023-03-19T15:12:18.474Z,9.32
2023-03-19T15:15:12.240Z,5.43
2023-03-19T15:17:40.088Z,3.70
2023-03-19T15:20:27.578Z,4.22
2023-03-19T15:23:11.032Z,2.80
2023-03-19T15:25:55.736Z,2.72
2023-03-19T15:28:24.888Z,3.38
2023-03-19T15:31:28.514Z,4.88
2023-03-19T15:33:59.231Z,2.75
2023-03-19T15:36:32.057Z,3.53
2023-03-19T15:39:13.450Z,4.88
2023-03-19T15:41:44.209Z,3.80
2023-03-19T15:44:24.671Z,5.82
2023-03-19T15:46:52.541Z,3.05
2023-03-19T15:49:38.407Z,2.83
2023-03-19T15:52:09.961Z,2.47
2023-03-19T15:54:39.524Z,2.10
2023-03-19T15:57:08.037Z,2.97
2023-03-19T15:59:35.692Z,2.28
2023-03-19T16:02:05.721Z,3.75
2023-03-19T16:05:03.624Z,3.53
2023-03-19T16:07:28.619Z,4.03
2023-03-19T16:09:56.869Z,4.07
2023-03-19T16:12:45.869Z,5.50
2023-03-19T16:15:32.656Z,4.65
2023-03-19T16:18:25.344Z,7.30
2023-03-19T16:21:06.614Z,4.00
2023-03-19T16:23:45.201Z,2.58
2023-03-19T16:26:30.001Z,4.35
2023-03-19T16:29:08.204Z,7.35
2023-03-19T16:31:46.910Z,13.50
2023-03-19T16:34:35.141Z,10.68
2023-03-19T16:37:04.368Z,10.27
2023-03-19T16:39:41.858Z,6.00
2023-03-19T16:42:17.206Z,5.93
2023-03-19T16:44:44.962Z,4.95
2023-03-19T16:47:14.982Z,3.38
2023-03-19T16:49:51.545Z,7.50
2023-03-19T16:52:24.127Z,3.95
2023-03-19T16:54:52.813Z,3.92
2023-03-19T16:57:23.027Z,6.80
2023-03-19T16:59:51.731Z,3.17
2023-03-19T17:02:20.292Z,5.50
2023-03-19T17:04:48.615Z,6.20
2023-03-19T17:07:17.048Z,6.80
2023-03-19T17:09:47.292Z,4.70
2023-03-19T17:12:16.051Z,5.20
2023-03-19T17:14:47.639Z,7.50
2023-03-19T17:17:22.327Z,3.83
2023-03-19T17:19:50.233Z,4.50
2023-03-19T17:22:18.917Z,3.00
2023-03-19T17:24:46.999Z,3.22
2023-03-19T17:27:15.973Z,5.43
2023-03-19T17:29:43.866Z,7.88
2023-03-19T17:32:19.330Z,5.55
2023-03-19T17:34:47.155Z,4.55
2023-03-19T17:37:15.479Z,3.47
2023-03-19T17:39:43.722Z,3.90
2023-03-19T17:42:22.123Z,9.13
2023-03-19T17:44:52.947Z,4.03
2023-03-19T17:47:23.971Z,4.45
2023-03-19T17:49:51.781Z,5.75
2023-03-19T17:52:23.076Z,8.52
2023-03-19T17:54:53.548Z,8.55
2023-03-19T17:57:29.319Z,13.27
2023-03-19T17:59:57.166Z,18.30
2023-03-19T18:02:27.654Z,9.93
2023-03-19T18:05:00.053Z,8.65
2023-03-19T18:07:27.679Z,7.05
2023-03-19T18:09:55.758Z,6.55
2023-03-19T18:12:23.690Z,14.90
2023-03-19T18:14:57.175Z,18.65
2023-03-19T18:17:27.652Z,15.35
2023-03-19T18:19:55.715Z,12.50
2023-03-19T18:22:28.163Z,9.57
2023-03-19T18:24:56.338Z,7.25
2023-03-19T18:27:38.509Z,5.05
2023-03-19T18:30:07.333Z,8.13
2023-03-19T18:32:35.151Z,12.35
2023-03-19T18:35:08.402Z,7.88
2023-03-19T18:37:47.626Z,10.63
2023-03-19T18:40:25.137Z,16.77
2023-03-19T18:42:56.476Z,15.77
2023-03-19T18:45:24.440Z,15.45
2023-03-19T18:47:55.584Z,16.42
2023-03-19T18:50:26.316Z,13.77
2023-03-19T18:52:57.247Z,14.77
2023-03-19T18:55:32.286Z,10.77
2023-03-19T18:58:02.008Z,9.80
2023-03-19T19:00:34.450Z,10.32
2023-03-19T19:03:02.861Z,8.88
2023-03-19T19:05:32.467Z,11.75
2023-03-19T19:08:08.816Z,8.52
2023-03-19T19:10:37.032Z,9.15
2023-03-19T19:13:08.855Z,14.30
2023-03-19T19:15:37.089Z,8.00
2023-03-19T19:18:26.497Z,10.77
2023-03-19T19:21:02.570Z,10.68
2023-03-19T19:23:33.702Z,14.65
2023-03-19T19:26:04.334Z,16.42
2023-03-19T19:28:41.425Z,17.77
2023-03-19T19:31:19.072Z,23.33
2023-03-19T19:33:47.475Z,16.08
2023-03-19T19:36:23.123Z,14.18
2023-03-19T19:38:52.362Z,14.73
2023-03-19T19:41:24.899Z,14.25
2023-03-19T19:44:04.951Z,13.85
2023-03-19T19:46:37.691Z,13.68
2023-03-19T19:49:14.783Z,12.35
2023-03-19T19:51:45.802Z,11.75
2023-03-19T19:54:16.947Z,12.07
2023-03-19T19:56:44.457Z,12.82
2023-03-19T19:59:14.820Z,12.55
2023-03-19T20:01:42.812Z,13.52
2023-03-19T20:04:15.083Z,16.42
2023-03-19T20:06:46.401Z,14.57
2023-03-19T20:09:16.859Z,12.23
2023-03-19T20:11:46.562Z,13.52
2023-03-19T20:14:17.355Z,12.25
2023-03-19T20:16:50.490Z,14.38
2023-03-19T20:19:23.616Z,11.52
2023-03-19T20:24:21.566Z,12.38
2023-03-19T20:26:49.224Z,9.45
2023-03-19T20:29:23.442Z,8.98
2023-03-19T20:31:51.085Z,7.80
2023-03-19T20:34:32.653Z,8.35
2023-03-19T20:37:06.164Z,6.90
2023-03-19T20:39:44.654Z,7.10
2023-03-19T20:42:16.008Z,6.97
2023-03-19T20:44:50.695Z,7.80
2023-03-19T20:47:21.233Z,5.18
2023-03-19T20:49:52.108Z,5.63
2023-03-19T20:52:20.019Z,4.72
2023-03-19T20:54:48.995Z,4.97
2023-03-19T20:57:18.762Z,6.95
2023-03-19T20:59:50.445Z,7.88
2023-03-19T21:02:22.511Z,8.23
2023-03-19T21:05:01.477Z,9.68
2023-03-19T21:07:34.888Z,9.25
2023-03-19T21:10:28.136Z,8.35
2023-03-19T21:13:03.205Z,7.07
2023-03-19T21:15:35.730Z,6.78
2023-03-19T21:18:15.042Z,5.95
2023-03-19T21:20:43.973Z,6.07
2023-03-19T21:23:40.681Z,6.25
2023-03-19T21:26:26.924Z,5.13
2023-03-19T21:29:06.215Z,6.00
2023-03-19T21:31:42.178Z,7.47
2023-03-19T21:34:16.759Z,6.43
2023-03-19T21:36:49.903Z,7.60
2023-03-19T21:39:23.851Z,7.38
2023-03-19T21:41:54.097Z,7.65
2023-03-19T21:44:27.736Z,8.18
2023-03-19T21:46:58.079Z,6.43
2023-03-19T21:49:30.605Z,7.43
2023-03-19T21:52:01.074Z,12.98
2023-03-19T21:54:34.704Z,8.25
2023-03-19T21:57:06.761Z,8.50
2023-03-19T21:59:34.388Z,7.28
2023-03-19T22:02:10.419Z,8.20
2023-03-19T22:04:47.734Z,6.68
2023-03-19T22:07:23.005Z,7.57
2023-03-19T22:09:50.420Z,6.65
2023-03-19T22:12:33.392Z,7.45
2023-03-19T22:15:10.115Z,8.65
2023-03-19T22:17:41.137Z,9.73
2023-03-19T22:20:17.356Z,10.68
2023-03-19T22:22:47.704Z,9.50
2023-03-19T22:25:17.853Z,9.70
2023-03-19T22:27:55.011Z,11.35
2023-03-19T22:30:38.282Z,10.73
2023-03-19T22:35:57.880Z,9.38
2023-03-19T22:38:29.321Z,9.90
2023-03-19T22:40:57.077Z,12.60
2023-03-19T22:43:37.002Z,10.70
2023-03-19T22:46:15.025Z,11.80
2023-03-19T22:48:45.542Z,13.18
2023-03-19T22:51:19.554Z,18.08
2023-03-19T22:53:50.324Z,14.40
2023-03-19T22:56:23.717Z,14.93
2023-03-19T22:58:54.523Z,16.15
2023-03-19T23:01:21.808Z,16.95
2023-03-19T23:03:52.728Z,18.92
2023-03-19T23:06:34.713Z,18.52
2023-03-19T23:09:02.497Z,18.58
2023-03-19T23:11:36.910Z,19.58
2023-03-19T23:14:27.843Z,18.08
2023-03-19T23:17:14.597Z,18.30
2023-03-19T23:19:42.260Z,12.75
2023-03-19T23:22:14.310Z,11.38
2023-03-19T23:24:42.820Z,9.93
2023-03-19T23:27:19.104Z,7.53
2023-03-19T23:29:51.776Z,7.25
2023-03-19T23:32:25.049Z,7.28
2023-03-19T23:35:01.234Z,6.68
2023-03-19T23:37:39.722Z,6.43
2023-03-19T23:40:08.382Z,7.30
2023-03-19T23:42:41.979Z,5.95
2023-03-19T23:45:34.372Z,4.82
2023-03-19T23:48:11.881Z,5.22
2023-03-19T23:50:42.034Z,4.68
2023-03-19T23:53:29.912Z,3.63
2023-03-19T23:56:05.178Z,3.70
2023-03-19T23:58:40.181Z,4.90
